createdAt,value
2022-12-11T00:00:02.565Z,70
2022-12-11T00:20:02.382Z,71
2022-12-11T00:40:02.539Z,71
2022-12-11T01:00:02.923Z,71
2022-12-11T01:20:02.507Z,71
2022-12-11T01:40:02.970Z,71
2022-12-11T02:00:02.340Z,71
2022-12-11T02:20:03.277Z,71
2022-12-11T02:40:02.697Z,71
2022-12-11T03:00:03.240Z,72
2022-12-11T03:20:08.806Z,72
2022-12-11T03:40:03.258Z,72
2022-12-11T04:00:02.684Z,72
2022-12-11T04:20:02.335Z,72
2022-12-11T04:40:02.757Z,73
2022-12-11T05:00:03.299Z,73
2022-12-11T05:20:02.910Z,73
2022-12-11T05:40:02.312Z,72
2022-12-11T06:00:02.678Z,71
2022-12-11T06:20:02.457Z,71
2022-12-11T06:40:03.042Z,71
2022-12-11T07:00:02.502Z,70
2022-12-11T07:20:02.315Z,70
2022-12-11T07:40:03.196Z,70
2022-12-11T08:00:02.629Z,69
2022-12-11T08:20:02.389Z,70
2022-12-11T08:40:03.140Z,70
2022-12-11T09:00:02.659Z,70
2022-12-11T09:20:02.506Z,70
2022-12-11T09:40:08.195Z,69
2022-12-11T10:00:06.061Z,69
2022-12-11T10:20:02.658Z,69
2022-12-11T10:40:03.183Z,69
2022-12-11T11:00:02.765Z,69
2022-12-11T11:20:02.368Z,69
2022-12-11T11:40:02.844Z,69
2022-12-11T12:00:03.558Z,69
2022-12-11T12:20:02.312Z,69
2022-12-11T12:40:02.917Z,68
2022-12-11T13:00:06.925Z,69
2022-12-11T13:20:03.098Z,69
2022-12-11T13:40:02.527Z,69
2022-12-11T14:00:03.006Z,69
2022-12-11T14:20:02.572Z,69
2022-12-11T14:40:02.983Z,69
2022-12-11T15:00:02.425Z,70
2022-12-11T15:20:03.579Z,70
2022-12-11T15:40:03.265Z,70
2022-12-11T16:00:02.866Z,70
2022-12-11T16:20:02.458Z,71
2022-12-11T16:40:08.717Z,71
2022-12-11T17:00:03.205Z,71
2022-12-11T17:20:02.731Z,71
2022-12-11T17:40:03.330Z,72
2022-12-11T18:00:03.104Z,72
2022-12-11T18:20:03.017Z,72
2022-12-11T18:40:02.529Z,73
2022-12-11T19:00:03.224Z,73
2022-12-11T19:20:48.410Z,73
2022-12-11T19:40:03.160Z,73
2022-12-11T20:00:03.216Z,73
2022-12-11T20:20:08.984Z,73
2022-12-11T20:40:02.516Z,73
2022-12-11T21:00:08.889Z,74
2022-12-11T21:20:02.453Z,74
2022-12-11T21:40:03.000Z,74
2022-12-11T22:00:02.397Z,74
2022-12-11T22:20:03.189Z,74
2022-12-11T22:40:02.744Z,74
2022-12-11T23:00:08.312Z,74
2022-12-11T23:20:08.806Z,74
2022-12-11T23:40:03.321Z,75
